sensor_id;sensor_type;location;lat;lon;timestamp;P1;durP1;ratioP1;P2;durP2;ratioP2
46429;SDS011;32131;53.454;-6.180;2022-07-30T00:02:35;1.20;;;0.43;;
46429;SDS011;32131;53.454;-6.180;2022-07-30T00:05:08;0.98;;;0.40;;
46429;SDS011;32131;53.454;-6.180;2022-07-30T00:07:49;0.52;;;0.32;;
46429;SDS011;32131;53.454;-6.180;2022-07-30T00:10:21;0.40;;;0.30;;
46429;SDS011;32131;53.454;-6.180;2022-07-30T00:12:57;1.88;;;0.50;;
46429;SDS011;32131;53.454;-6.180;2022-07-30T00:15:27;0.70;;;0.40;;
46429;SDS011;32131;53.454;-6.180;2022-07-30T00:18:04;3.33;;;0.77;;
46429;SDS011;32131;53.454;-6.180;2022-07-30T00:20:52;0.93;;;0.50;;
46429;SDS011;32131;53.454;-6.180;2022-07-30T00:23:34;1.13;;;0.47;;
46429;SDS011;32131;53.454;-6.180;2022-07-30T00:26:39;1.75;;;0.40;;
46429;SDS011;32131;53.454;-6.180;2022-07-30T00:29:08;0.77;;;0.40;;
46429;SDS011;32131;53.454;-6.180;2022-07-30T00:31:50;0.63;;;0.30;;
46429;SDS011;32131;53.454;-6.180;2022-07-30T00:34:42;2.40;;;0.63;;
46429;SDS011;32131;53.454;-6.180;2022-07-30T00:37:44;1.20;;;0.50;;
46429;SDS011;32131;53.454;-6.180;2022-07-30T00:40:21;0.55;;;0.40;;
46429;SDS011;32131;53.454;-6.180;2022-07-30T00:43:11;1.07;;;0.47;;
46429;SDS011;32131;53.454;-6.180;2022-07-30T00:45:56;1.40;;;0.60;;
46429;SDS011;32131;53.454;-6.180;2022-07-30T00:48:49;0.47;;;0.40;;
46429;SDS011;32131;53.454;-6.180;2022-07-30T00:51:48;2.30;;;0.43;;
46429;SDS011;32131;53.454;-6.180;2022-07-30T00:54:45;0.88;;;0.43;;
46429;SDS011;32131;53.454;-6.180;2022-07-30T00:57:20;0.88;;;0.40;;
46429;SDS011;32131;53.454;-6.180;2022-07-30T01:00:02;0.63;;;0.40;;
46429;SDS011;32131;53.454;-6.180;2022-07-30T01:02:39;0.70;;;0.30;;
46429;SDS011;32131;53.454;-6.180;2022-07-30T01:05:19;1.10;;;0.47;;
46429;SDS011;32131;53.454;-6.180;2022-07-30T01:08:00;1.10;;;0.30;;
46429;SDS011;32131;53.454;-6.180;2022-07-30T01:10:28;1.50;;;0.60;;
46429;SDS011;32131;53.454;-6.180;2022-07-30T01:13:02;1.50;;;0.47;;
46429;SDS011;32131;53.454;-6.180;2022-07-30T01:18:41;0.63;;;0.47;;
46429;SDS011;32131;53.454;-6.180;2022-07-30T01:21:58;1.75;;;0.57;;
46429;SDS011;32131;53.454;-6.180;2022-07-30T01:25:00;0.40;;;0.30;;
46429;SDS011;32131;53.454;-6.180;2022-07-30T01:27:44;1.08;;;0.50;;
46429;SDS011;32131;53.454;-6.180;2022-07-30T01:30:44;4.07;;;0.93;;
46429;SDS011;32131;53.454;-6.180;2022-07-30T01:33:22;1.13;;;0.60;;
46429;SDS011;32131;53.454;-6.180;2022-07-30T01:36:07;1.10;;;0.52;;
46429;SDS011;32131;53.454;-6.180;2022-07-30T01:38:40;1.33;;;0.70;;
46429;SDS011;32131;53.454;-6.180;2022-07-30T01:41:20;4.47;;;0.70;;
46429;SDS011;32131;53.454;-6.180;2022-07-30T01:44:06;2.78;;;0.90;;
46429;SDS011;32131;53.454;-6.180;2022-07-30T01:46:49;6.03;;;1.00;;
46429;SDS011;32131;53.454;-6.180;2022-07-30T01:49:21;3.38;;;0.88;;
46429;SDS011;32131;53.454;-6.180;2022-07-30T01:52:08;1.45;;;0.60;;
46429;SDS011;32131;53.454;-6.180;2022-07-30T01:54:45;1.17;;;0.70;;
46429;SDS011;32131;53.454;-6.180;2022-07-30T02:00:16;1.00;;;0.70;;
46429;SDS011;32131;53.454;-6.180;2022-07-30T02:03:00;0.60;;;0.40;;
46429;SDS011;32131;53.454;-6.180;2022-07-30T02:05:33;0.88;;;0.50;;
46429;SDS011;32131;53.454;-6.180;2022-07-30T02:08:08;1.02;;;0.65;;
46429;SDS011;32131;53.454;-6.180;2022-07-30T02:10:44;1.63;;;0.68;;
46429;SDS011;32131;53.454;-6.180;2022-07-30T02:13:22;1.63;;;0.80;;
46429;SDS011;32131;53.454;-6.180;2022-07-30T02:16:05;0.90;;;0.50;;
46429;SDS011;32131;53.454;-6.180;2022-07-30T02:18:39;1.95;;;0.40;;
46429;SDS011;32131;53.454;-6.180;2022-07-30T02:21:22;4.00;;;0.60;;
46429;SDS011;32131;53.454;-6.180;2022-07-30T02:24:06;4.32;;;0.75;;
46429;SDS011;32131;53.454;-6.180;2022-07-30T02:26:40;2.60;;;0.73;;
46429;SDS011;32131;53.454;-6.180;2022-07-30T02:29:24;1.20;;;0.75;;
46429;SDS011;32131;53.454;-6.180;2022-07-30T02:32:01;1.70;;;0.70;;
46429;SDS011;32131;53.454;-6.180;2022-07-30T02:34:55;2.40;;;0.93;;
46429;SDS011;32131;53.454;-6.180;2022-07-30T02:40:30;4.22;;;0.95;;
46429;SDS011;32131;53.454;-6.180;2022-07-30T02:43:06;1.08;;;0.73;;
46429;SDS011;32131;53.454;-6.180;2022-07-30T02:46:24;2.08;;;0.88;;
46429;SDS011;32131;53.454;-6.180;2022-07-30T02:49:32;1.08;;;0.77;;
46429;SDS011;32131;53.454;-6.180;2022-07-30T02:52:13;1.40;;;0.68;;
46429;SDS011;32131;53.454;-6.180;2022-07-30T02:54:55;1.70;;;1.30;;
46429;SDS011;32131;53.454;-6.180;2022-07-30T02:57:30;1.27;;;0.80;;
46429;SDS011;32131;53.454;-6.180;2022-07-30T03:00:11;2.05;;;1.00;;
46429;SDS011;32131;53.454;-6.180;2022-07-30T03:02:56;1.90;;;0.93;;
46429;SDS011;32131;53.454;-6.180;2022-07-30T03:05:32;1.30;;;0.60;;
46429;SDS011;32131;53.454;-6.180;2022-07-30T03:08:15;5.07;;;0.88;;
46429;SDS011;32131;53.454;-6.180;2022-07-30T03:10:46;2.90;;;0.85;;
46429;SDS011;32131;53.454;-6.180;2022-07-30T03:13:24;1.88;;;0.98;;
46429;SDS011;32131;53.454;-6.180;2022-07-30T03:15:53;2.25;;;1.08;;
46429;SDS011;32131;53.454;-6.180;2022-07-30T03:18:35;1.60;;;1.00;;
46429;SDS011;32131;53.454;-6.180;2022-07-30T03:21:15;1.20;;;0.85;;
46429;SDS011;32131;53.454;-6.180;2022-07-30T03:24:01;2.42;;;1.23;;
46429;SDS011;32131;53.454;-6.180;2022-07-30T03:26:34;2.20;;;0.95;;
46429;SDS011;32131;53.454;-6.180;2022-07-30T03:29:08;2.15;;;1.00;;
46429;SDS011;32131;53.454;-6.180;2022-07-30T03:31:40;1.73;;;1.27;;
46429;SDS011;32131;53.454;-6.180;2022-07-30T03:34:16;2.30;;;1.48;;
46429;SDS011;32131;53.454;-6.180;2022-07-30T03:36:56;4.40;;;1.33;;
46429;SDS011;32131;53.454;-6.180;2022-07-30T03:39:26;1.70;;;1.17;;
46429;SDS011;32131;53.454;-6.180;2022-07-30T03:41:56;2.30;;;1.30;;
46429;SDS011;32131;53.454;-6.180;2022-07-30T03:44:24;2.00;;;1.40;;
46429;SDS011;32131;53.454;-6.180;2022-07-30T03:46:55;2.75;;;1.58;;
46429;SDS011;32131;53.454;-6.180;2022-07-30T03:49:25;3.03;;;1.42;;
46429;SDS011;32131;53.454;-6.180;2022-07-30T03:51:56;2.45;;;1.45;;
46429;SDS011;32131;53.454;-6.180;2022-07-30T03:54:31;2.38;;;1.48;;
46429;SDS011;32131;53.454;-6.180;2022-07-30T03:57:01;3.58;;;1.17;;
46429;SDS011;32131;53.454;-6.180;2022-07-30T03:59:32;2.58;;;1.55;;
46429;SDS011;32131;53.454;-6.180;2022-07-30T04:02:01;2.28;;;1.27;;
46429;SDS011;32131;53.454;-6.180;2022-07-30T04:04:32;2.55;;;1.27;;
46429;SDS011;32131;53.454;-6.180;2022-07-30T04:07:07;3.55;;;1.20;;
46429;SDS011;32131;53.454;-6.180;2022-07-30T04:09:37;2.50;;;1.40;;
46429;SDS011;32131;53.454;-6.180;2022-07-30T04:12:06;3.33;;;1.20;;
46429;SDS011;32131;53.454;-6.180;2022-07-30T04:14:38;5.63;;;1.13;;
46429;SDS011;32131;53.454;-6.180;2022-07-30T04:17:11;1.75;;;1.17;;
46429;SDS011;32131;53.454;-6.180;2022-07-30T04:19:45;3.72;;;1.55;;
46429;SDS011;32131;53.454;-6.180;2022-07-30T04:22:20;2.08;;;1.20;;
46429;SDS011;32131;53.454;-6.180;2022-07-30T04:24:56;2.60;;;1.30;;
46429;SDS011;32131;53.454;-6.180;2022-07-30T04:27:27;2.63;;;1.20;;
46429;SDS011;32131;53.454;-6.180;2022-07-30T04:30:05;2.05;;;1.20;;
46429;SDS011;32131;53.454;-6.180;2022-07-30T04:32:35;4.85;;;1.30;;
46429;SDS011;32131;53.454;-6.180;2022-07-30T04:35:04;2.15;;;1.42;;
46429;SDS011;32131;53.454;-6.180;2022-07-30T04:37:48;2.22;;;1.48;;
46429;SDS011;32131;53.454;-6.180;2022-07-30T04:40:19;2.55;;;1.70;;
46429;SDS011;32131;53.454;-6.180;2022-07-30T04:42:48;2.00;;;1.23;;
46429;SDS011;32131;53.454;-6.180;2022-07-30T04:45:19;2.20;;;1.25;;
46429;SDS011;32131;53.454;-6.180;2022-07-30T04:47:48;2.15;;;1.40;;
46429;SDS011;32131;53.454;-6.180;2022-07-30T04:50:20;1.38;;;1.02;;
46429;SDS011;32131;53.454;-6.180;2022-07-30T04:52:55;2.28;;;1.27;;
46429;SDS011;32131;53.454;-6.180;2022-07-30T04:55:25;1.30;;;1.10;;
46429;SDS011;32131;53.454;-6.180;2022-07-30T04:57:56;2.25;;;1.10;;
46429;SDS011;32131;53.454;-6.180;2022-07-30T05:00:28;2.38;;;0.98;;
46429;SDS011;32131;53.454;-6.180;2022-07-30T05:03:06;1.55;;;0.93;;
46429;SDS011;32131;53.454;-6.180;2022-07-30T05:05:41;3.15;;;0.90;;
46429;SDS011;32131;53.454;-6.180;2022-07-30T05:08:14;1.83;;;1.30;;
46429;SDS011;32131;53.454;-6.180;2022-07-30T05:10:44;2.03;;;1.30;;
46429;SDS011;32131;53.454;-6.180;2022-07-30T05:13:21;2.72;;;1.45;;
46429;SDS011;32131;53.454;-6.180;2022-07-30T05:16:02;2.80;;;1.15;;
46429;SDS011;32131;53.454;-6.180;2022-07-30T05:18:31;2.53;;;1.40;;
46429;SDS011;32131;53.454;-6.180;2022-07-30T05:21:04;1.85;;;1.30;;
46429;SDS011;32131;53.454;-6.180;2022-07-30T05:23:36;1.92;;;1.40;;
46429;SDS011;32131;53.454;-6.180;2022-07-30T05:26:06;8.55;;;1.35;;
46429;SDS011;32131;53.454;-6.180;2022-07-30T05:28:40;2.92;;;1.50;;
46429;SDS011;32131;53.454;-6.180;2022-07-30T05:31:14;2.55;;;1.40;;
46429;SDS011;32131;53.454;-6.180;2022-07-30T05:33:43;4.80;;;1.42;;
46429;SDS011;32131;53.454;-6.180;2022-07-30T05:36:12;2.45;;;1.67;;
46429;SDS011;32131;53.454;-6.180;2022-07-30T05:38:42;2.30;;;1.40;;
46429;SDS011;32131;53.454;-6.180;2022-07-30T05:41:11;2.70;;;1.60;;
46429;SDS011;32131;53.454;-6.180;2022-07-30T05:43:58;2.55;;;1.70;;
46429;SDS011;32131;53.454;-6.180;2022-07-30T05:46:29;2.72;;;1.55;;
46429;SDS011;32131;53.454;-6.180;2022-07-30T05:49:04;2.22;;;1.33;;
46429;SDS011;32131;53.454;-6.180;2022-07-30T05:51:37;3.70;;;1.83;;
46429;SDS011;32131;53.454;-6.180;2022-07-30T05:54:11;7.00;;;1.98;;
46429;SDS011;32131;53.454;-6.180;2022-07-30T05:56:42;3.83;;;1.67;;
46429;SDS011;32131;53.454;-6.180;2022-07-30T05:59:11;5.55;;;1.92;;
46429;SDS011;32131;53.454;-6.180;2022-07-30T06:01:40;2.90;;;1.55;;
46429;SDS011;32131;53.454;-6.180;2022-07-30T06:04:12;3.22;;;1.63;;
46429;SDS011;32131;53.454;-6.180;2022-07-30T06:06:44;2.42;;;1.60;;
46429;SDS011;32131;53.454;-6.180;2022-07-30T06:09:16;3.28;;;1.48;;
46429;SDS011;32131;53.454;-6.180;2022-07-30T06:12:02;6.55;;;1.63;;
46429;SDS011;32131;53.454;-6.180;2022-07-30T06:14:32;3.73;;;1.67;;
46429;SDS011;32131;53.454;-6.180;2022-07-30T06:17:00;4.28;;;1.20;;
46429;SDS011;32131;53.454;-6.180;2022-07-30T06:19:31;4.35;;;2.03;;
46429;SDS011;32131;53.454;-6.180;2022-07-30T06:21:59;6.63;;;1.60;;
46429;SDS011;32131;53.454;-6.180;2022-07-30T06:24:34;2.35;;;1.13;;
46429;SDS011;32131;53.454;-6.180;2022-07-30T06:27:03;3.28;;;1.70;;
46429;SDS011;32131;53.454;-6.180;2022-07-30T06:29:31;5.28;;;1.60;;
46429;SDS011;32131;53.454;-6.180;2022-07-30T06:32:00;2.63;;;1.42;;
46429;SDS011;32131;53.454;-6.180;2022-07-30T06:34:32;2.65;;;1.40;;
46429;SDS011;32131;53.454;-6.180;2022-07-30T06:37:00;3.55;;;1.38;;
46429;SDS011;32131;53.454;-6.180;2022-07-30T06:39:31;5.47;;;1.42;;
46429;SDS011;32131;53.454;-6.180;2022-07-30T06:42:24;2.65;;;1.17;;
46429;SDS011;32131;53.454;-6.180;2022-07-30T06:44:52;2.85;;;1.48;;
46429;SDS011;32131;53.454;-6.180;2022-07-30T06:47:21;3.65;;;1.10;;
46429;SDS011;32131;53.454;-6.180;2022-07-30T06:49:51;2.20;;;1.30;;
46429;SDS011;32131;53.454;-6.180;2022-07-30T06:52:21;1.63;;;1.00;;
46429;SDS011;32131;53.454;-6.180;2022-07-30T06:54:51;3.95;;;1.35;;
46429;SDS011;32131;53.454;-6.180;2022-07-30T06:57:20;2.40;;;1.30;;
46429;SDS011;32131;53.454;-6.180;2022-07-30T06:59:52;2.30;;;1.15;;
46429;SDS011;32131;53.454;-6.180;2022-07-30T07:02:23;1.58;;;0.80;;
46429;SDS011;32131;53.454;-6.180;2022-07-30T07:04:54;5.10;;;1.02;;
46429;SDS011;32131;53.454;-6.180;2022-07-30T07:07:22;1.75;;;1.10;;
46429;SDS011;32131;53.454;-6.180;2022-07-30T07:10:07;1.45;;;0.98;;
46429;SDS011;32131;53.454;-6.180;2022-07-30T07:12:36;9.68;;;1.27;;
46429;SDS011;32131;53.454;-6.180;2022-07-30T07:15:07;2.58;;;1.10;;
46429;SDS011;32131;53.454;-6.180;2022-07-30T07:17:36;2.15;;;0.98;;
46429;SDS011;32131;53.454;-6.180;2022-07-30T07:20:07;1.67;;;0.95;;
46429;SDS011;32131;53.454;-6.180;2022-07-30T07:22:37;2.50;;;1.08;;
46429;SDS011;32131;53.454;-6.180;2022-07-30T07:25:11;1.70;;;1.05;;
46429;SDS011;32131;53.454;-6.180;2022-07-30T07:27:52;3.00;;;1.10;;
46429;SDS011;32131;53.454;-6.180;2022-07-30T07:30:40;1.83;;;0.80;;
46429;SDS011;32131;53.454;-6.180;2022-07-30T07:33:10;3.35;;;1.13;;
46429;SDS011;32131;53.454;-6.180;2022-07-30T07:35:46;1.95;;;0.95;;
46429;SDS011;32131;53.454;-6.180;2022-07-30T07:38:18;2.10;;;0.90;;
46429;SDS011;32131;53.454;-6.180;2022-07-30T07:40:46;0.75;;;0.52;;
46429;SDS011;32131;53.454;-6.180;2022-07-30T07:43:18;0.60;;;0.50;;
46429;SDS011;32131;53.454;-6.180;2022-07-30T07:45:51;1.40;;;0.80;;
46429;SDS011;32131;53.454;-6.180;2022-07-30T07:48:19;2.25;;;0.80;;
46429;SDS011;32131;53.454;-6.180;2022-07-30T07:50:49;2.80;;;0.75;;
46429;SDS011;32131;53.454;-6.180;2022-07-30T07:53:30;1.40;;;0.80;;
46429;SDS011;32131;53.454;-6.180;2022-07-30T07:56:04;1.00;;;0.60;;
46429;SDS011;32131;53.454;-6.180;2022-07-30T07:58:50;1.42;;;0.93;;
46429;SDS011;32131;53.454;-6.180;2022-07-30T08:01:25;1.50;;;0.88;;
46429;SDS011;32131;53.454;-6.180;2022-07-30T08:03:57;1.10;;;0.60;;
46429;SDS011;32131;53.454;-6.180;2022-07-30T08:06:29;4.60;;;0.73;;
46429;SDS011;32131;53.454;-6.180;2022-07-30T08:09:03;8.10;;;0.75;;
46429;SDS011;32131;53.454;-6.180;2022-07-30T08:11:31;5.63;;;0.55;;
46429;SDS011;32131;53.454;-6.180;2022-07-30T08:14:00;0.80;;;0.50;;
46429;SDS011;32131;53.454;-6.180;2022-07-30T08:16:32;1.27;;;0.60;;
46429;SDS011;32131;53.454;-6.180;2022-07-30T08:19:01;3.03;;;0.70;;
46429;SDS011;32131;53.454;-6.180;2022-07-30T08:21:39;1.55;;;0.77;;
46429;SDS011;32131;53.454;-6.180;2022-07-30T08:24:09;0.77;;;0.43;;
46429;SDS011;32131;53.454;-6.180;2022-07-30T08:26:37;1.90;;;0.98;;
46429;SDS011;32131;53.454;-6.180;2022-07-30T08:29:06;3.65;;;0.73;;
46429;SDS011;32131;53.454;-6.180;2022-07-30T08:31:43;2.20;;;0.80;;
46429;SDS011;32131;53.454;-6.180;2022-07-30T08:34:28;2.63;;;0.68;;
46429;SDS011;32131;53.454;-6.180;2022-07-30T08:37:02;0.90;;;0.52;;
46429;SDS011;32131;53.454;-6.180;2022-07-30T08:39:40;1.10;;;0.60;;
46429;SDS011;32131;53.454;-6.180;2022-07-30T08:42:11;2.43;;;0.73;;
46429;SDS011;32131;53.454;-6.180;2022-07-30T08:44:43;1.60;;;0.80;;
46429;SDS011;32131;53.454;-6.180;2022-07-30T08:47:29;2.92;;;0.60;;
46429;SDS011;32131;53.454;-6.180;2022-07-30T08:50:00;3.40;;;0.85;;
46429;SDS011;32131;53.454;-6.180;2022-07-30T08:52:42;2.20;;;0.90;;
46429;SDS011;32131;53.454;-6.180;2022-07-30T08:55:11;1.38;;;0.55;;
46429;SDS011;32131;53.454;-6.180;2022-07-30T08:57:39;1.58;;;0.90;;
46429;SDS011;32131;53.454;-6.180;2022-07-30T09:00:09;1.40;;;0.80;;
46429;SDS011;32131;53.454;-6.180;2022-07-30T09:02:41;1.38;;;0.85;;
46429;SDS011;32131;53.454;-6.180;2022-07-30T09:05:13;1.58;;;0.98;;
46429;SDS011;32131;53.454;-6.180;2022-07-30T09:07:41;5.07;;;1.00;;
46429;SDS011;32131;53.454;-6.180;2022-07-30T09:10:10;3.45;;;0.88;;
46429;SDS011;32131;53.454;-6.180;2022-07-30T09:12:39;2.22;;;1.00;;
46429;SDS011;32131;53.454;-6.180;2022-07-30T09:15:10;1.02;;;0.70;;
46429;SDS011;32131;53.454;-6.180;2022-07-30T09:17:46;0.95;;;0.70;;
46429;SDS011;32131;53.454;-6.180;2022-07-30T09:20:23;1.67;;;0.90;;
46429;SDS011;32131;53.454;-6.180;2022-07-30T09:22:56;1.95;;;1.00;;
46429;SDS011;32131;53.454;-6.180;2022-07-30T09:25:31;1.85;;;0.80;;
46429;SDS011;32131;53.454;-6.180;2022-07-30T09:28:05;1.70;;;0.65;;
46429;SDS011;32131;53.454;-6.180;2022-07-30T09:30:48;1.70;;;1.02;;
46429;SDS011;32131;53.454;-6.180;2022-07-30T09:33:36;1.13;;;0.73;;
46429;SDS011;32131;53.454;-6.180;2022-07-30T09:36:06;3.80;;;0.80;;
46429;SDS011;32131;53.454;-6.180;2022-07-30T09:38:43;3.95;;;0.63;;
46429;SDS011;32131;53.454;-6.180;2022-07-30T09:41:13;0.57;;;0.50;;
46429;SDS011;32131;53.454;-6.180;2022-07-30T09:44:03;0.88;;;0.55;;
46429;SDS011;32131;53.454;-6.180;2022-07-30T09:46:41;4.50;;;0.73;;
46429;SDS011;32131;53.454;-6.180;2022-07-30T09:49:21;1.10;;;0.60;;
46429;SDS011;32131;53.454;-6.180;2022-07-30T09:51:51;1.15;;;0.68;;
46429;SDS011;32131;53.454;-6.180;2022-07-30T09:54:23;1.25;;;0.85;;
46429;SDS011;32131;53.454;-6.180;2022-07-30T09:57:05;2.78;;;0.70;;
46429;SDS011;32131;53.454;-6.180;2022-07-30T10:02:28;0.95;;;0.65;;
46429;SDS011;32131;53.454;-6.180;2022-07-30T10:05:10;0.88;;;0.60;;
46429;SDS011;32131;53.454;-6.180;2022-07-30T10:07:47;2.22;;;0.70;;
46429;SDS011;32131;53.454;-6.180;2022-07-30T10:10:18;1.17;;;0.77;;
46429;SDS011;32131;53.454;-6.180;2022-07-30T10:12:56;3.17;;;0.63;;
46429;SDS011;32131;53.454;-6.180;2022-07-30T10:15:30;1.17;;;0.75;;
46429;SDS011;32131;53.454;-6.180;2022-07-30T10:18:00;2.63;;;1.00;;
46429;SDS011;32131;53.454;-6.180;2022-07-30T10:20:33;2.25;;;1.00;;
46429;SDS011;32131;53.454;-6.180;2022-07-30T10:23:01;2.10;;;1.10;;
46429;SDS011;32131;53.454;-6.180;2022-07-30T10:25:55;1.98;;;0.88;;
46429;SDS011;32131;53.454;-6.180;2022-07-30T10:28:25;0.90;;;0.70;;
46429;SDS011;32131;53.454;-6.180;2022-07-30T10:30:56;1.58;;;0.85;;
46429;SDS011;32131;53.454;-6.180;2022-07-30T10:33:27;1.40;;;0.88;;
46429;SDS011;32131;53.454;-6.180;2022-07-30T10:36:07;2.40;;;1.08;;
46429;SDS011;32131;53.454;-6.180;2022-07-30T10:38:39;1.33;;;0.93;;
46429;SDS011;32131;53.454;-6.180;2022-07-30T10:41:24;2.35;;;1.20;;
46429;SDS011;32131;53.454;-6.180;2022-07-30T10:44:17;2.25;;;1.40;;
46429;SDS011;32131;53.454;-6.180;2022-07-30T10:47:00;1.27;;;0.90;;
46429;SDS011;32131;53.454;-6.180;2022-07-30T10:49:35;2.33;;;0.88;;
46429;SDS011;32131;53.454;-6.180;2022-07-30T10:52:09;2.08;;;1.15;;
46429;SDS011;32131;53.454;-6.180;2022-07-30T10:54:41;5.35;;;1.23;;
46429;SDS011;32131;53.454;-6.180;2022-07-30T10:57:12;2.63;;;1.33;;
46429;SDS011;32131;53.454;-6.180;2022-07-30T11:00:10;4.45;;;1.17;;
46429;SDS011;32131;53.454;-6.180;2022-07-30T11:05:41;3.25;;;1.20;;
46429;SDS011;32131;53.454;-6.180;2022-07-30T11:17:57;3.40;;;1.10;;
46429;SDS011;32131;53.454;-6.180;2022-07-30T11:20:38;1.05;;;0.82;;
46429;SDS011;32131;53.454;-6.180;2022-07-30T11:26:06;1.65;;;1.08;;
46429;SDS011;32131;53.454;-6.180;2022-07-30T11:28:43;3.03;;;1.10;;
46429;SDS011;32131;53.454;-6.180;2022-07-30T11:31:24;1.92;;;1.10;;
46429;SDS011;32131;53.454;-6.180;2022-07-30T11:34:27;1.70;;;1.13;;
46429;SDS011;32131;53.454;-6.180;2022-07-30T11:37:03;3.58;;;1.27;;
46429;SDS011;32131;53.454;-6.180;2022-07-30T11:42:39;2.30;;;1.20;;
46429;SDS011;32131;53.454;-6.180;2022-07-30T11:45:18;2.15;;;1.13;;
46429;SDS011;32131;53.454;-6.180;2022-07-30T11:47:53;1.35;;;0.90;;
46429;SDS011;32131;53.454;-6.180;2022-07-30T11:50:27;3.95;;;1.35;;
46429;SDS011;32131;53.454;-6.180;2022-07-30T11:52:58;2.25;;;1.40;;
46429;SDS011;32131;53.454;-6.180;2022-07-30T11:55:29;3.45;;;1.45;;
46429;SDS011;32131;53.454;-6.180;2022-07-30T11:57:59;2.50;;;1.23;;
46429;SDS011;32131;53.454;-6.180;2022-07-30T12:00:34;1.73;;;1.20;;
46429;SDS011;32131;53.454;-6.180;2022-07-30T12:03:07;3.40;;;1.50;;
46429;SDS011;32131;53.454;-6.180;2022-07-30T12:05:37;2.22;;;1.60;;
46429;SDS011;32131;53.454;-6.180;2022-07-30T12:08:06;2.85;;;1.33;;
46429;SDS011;32131;53.454;-6.180;2022-07-30T12:10:57;3.42;;;1.55;;
46429;SDS011;32131;53.454;-6.180;2022-07-30T12:13:27;2.67;;;1.58;;
46429;SDS011;32131;53.454;-6.180;2022-07-30T12:16:11;1.85;;;1.13;;
46429;SDS011;32131;53.454;-6.180;2022-07-30T12:18:43;3.45;;;1.50;;
46429;SDS011;32131;53.454;-6.180;2022-07-30T12:21:12;1.48;;;1.10;;
46429;SDS011;32131;53.454;-6.180;2022-07-30T12:23:42;2.23;;;1.40;;
46429;SDS011;32131;53.454;-6.180;2022-07-30T12:26:21;1.80;;;1.40;;
46429;SDS011;32131;53.454;-6.180;2022-07-30T12:28:52;1.73;;;1.17;;
46429;SDS011;32131;53.454;-6.180;2022-07-30T12:31:22;1.80;;;1.10;;
46429;SDS011;32131;53.454;-6.180;2022-07-30T12:33:51;1.83;;;1.10;;
46429;SDS011;32131;53.454;-6.180;2022-07-30T12:36:25;2.58;;;1.38;;
46429;SDS011;32131;53.454;-6.180;2022-07-30T12:38:56;2.50;;;1.30;;
46429;SDS011;32131;53.454;-6.180;2022-07-30T12:41:40;1.83;;;1.23;;
46429;SDS011;32131;53.454;-6.180;2022-07-30T12:44:10;2.30;;;1.00;;
46429;SDS011;32131;53.454;-6.180;2022-07-30T12:47:02;1.20;;;0.88;;
46429;SDS011;32131;53.454;-6.180;2022-07-30T12:49:32;0.93;;;0.80;;
46429;SDS011;32131;53.454;-6.180;2022-07-30T12:52:19;3.75;;;1.10;;
46429;SDS011;32131;53.454;-6.180;2022-07-30T12:55:01;1.42;;;0.93;;
46429;SDS011;32131;53.454;-6.180;2022-07-30T12:57:57;1.42;;;0.70;;
46429;SDS011;32131;53.454;-6.180;2022-07-30T13:00:44;1.98;;;1.10;;
46429;SDS011;32131;53.454;-6.180;2022-07-30T13:03:19;1.40;;;0.93;;
46429;SDS011;32131;53.454;-6.180;2022-07-30T13:05:49;1.48;;;0.70;;
46429;SDS011;32131;53.454;-6.180;2022-07-30T13:08:24;1.48;;;0.80;;
46429;SDS011;32131;53.454;-6.180;2022-07-30T13:11:12;1.67;;;1.00;;
46429;SDS011;32131;53.454;-6.180;2022-07-30T13:13:43;1.10;;;0.70;;
46429;SDS011;32131;53.454;-6.180;2022-07-30T13:16:12;0.93;;;0.70;;
46429;SDS011;32131;53.454;-6.180;2022-07-30T13:18:41;2.20;;;1.02;;
46429;SDS011;32131;53.454;-6.180;2022-07-30T13:21:10;1.50;;;0.70;;
46429;SDS011;32131;53.454;-6.180;2022-07-30T13:23:40;0.85;;;0.40;;
46429;SDS011;32131;53.454;-6.180;2022-07-30T13:26:08;1.70;;;0.75;;
46429;SDS011;32131;53.454;-6.180;2022-07-30T13:28:37;1.13;;;0.90;;
46429;SDS011;32131;53.454;-6.180;2022-07-30T13:31:08;0.98;;;0.50;;
46429;SDS011;32131;53.454;-6.180;2022-07-30T13:33:36;1.25;;;0.68;;
46429;SDS011;32131;53.454;-6.180;2022-07-30T13:36:05;2.10;;;1.00;;
46429;SDS011;32131;53.454;-6.180;2022-07-30T13:38:34;2.83;;;0.80;;
46429;SDS011;32131;53.454;-6.180;2022-07-30T13:41:04;1.38;;;0.90;;
46429;SDS011;32131;53.454;-6.180;2022-07-30T13:43:33;0.82;;;0.63;;
46429;SDS011;32131;53.454;-6.180;2022-07-30T13:46:02;3.97;;;0.63;;
46429;SDS011;32131;53.454;-6.180;2022-07-30T13:48:35;1.33;;;0.63;;
46429;SDS011;32131;53.454;-6.180;2022-07-30T13:51:04;0.98;;;0.68;;
46429;SDS011;32131;53.454;-6.180;2022-07-30T13:53:34;0.93;;;0.60;;
46429;SDS011;32131;53.454;-6.180;2022-07-30T13:56:02;0.90;;;0.50;;
46429;SDS011;32131;53.454;-6.180;2022-07-30T13:58:38;0.70;;;0.52;;
46429;SDS011;32131;53.454;-6.180;2022-07-30T14:01:06;0.88;;;0.47;;
46429;SDS011;32131;53.454;-6.180;2022-07-30T14:03:45;1.70;;;0.47;;
46429;SDS011;32131;53.454;-6.180;2022-07-30T14:06:17;0.95;;;0.50;;
46429;SDS011;32131;53.454;-6.180;2022-07-30T14:08:46;0.40;;;0.38;;
46429;SDS011;32131;53.454;-6.180;2022-07-30T14:11:15;0.80;;;0.55;;
46429;SDS011;32131;53.454;-6.180;2022-07-30T14:13:43;0.70;;;0.50;;
46429;SDS011;32131;53.454;-6.180;2022-07-30T14:16:12;0.55;;;0.40;;
46429;SDS011;32131;53.454;-6.180;2022-07-30T14:19:02;0.75;;;0.52;;
46429;SDS011;32131;53.454;-6.180;2022-07-30T14:21:50;0.57;;;0.45;;
46429;SDS011;32131;53.454;-6.180;2022-07-30T14:24:19;1.50;;;0.52;;
46429;SDS011;32131;53.454;-6.180;2022-07-30T14:26:48;1.35;;;0.40;;
46429;SDS011;32131;53.454;-6.180;2022-07-30T14:29:23;0.52;;;0.40;;
46429;SDS011;32131;53.454;-6.180;2022-07-30T14:31:52;0.20;;;0.20;;
46429;SDS011;32131;53.454;-6.180;2022-07-30T14:34:21;0.40;;;0.40;;
46429;SDS011;32131;53.454;-6.180;2022-07-30T14:36:50;1.20;;;0.50;;
46429;SDS011;32131;53.454;-6.180;2022-07-30T14:39:18;0.93;;;0.52;;
46429;SDS011;32131;53.454;-6.180;2022-07-30T14:41:47;0.90;;;0.38;;
46429;SDS011;32131;53.454;-6.180;2022-07-30T14:44:21;0.40;;;0.22;;
46429;SDS011;32131;53.454;-6.180;2022-07-30T14:46:55;0.35;;;0.15;;
46429;SDS011;32131;53.454;-6.180;2022-07-30T14:49:28;0.75;;;0.47;;
46429;SDS011;32131;53.454;-6.180;2022-07-30T14:54:25;0.57;;;0.40;;
46429;SDS011;32131;53.454;-6.180;2022-07-30T14:56:56;0.80;;;0.50;;
46429;SDS011;32131;53.454;-6.180;2022-07-30T14:59:25;1.23;;;0.73;;
46429;SDS011;32131;53.454;-6.180;2022-07-30T15:01:54;0.88;;;0.52;;
46429;SDS011;32131;53.454;-6.180;2022-07-30T15:04:24;0.93;;;0.45;;
46429;SDS011;32131;53.454;-6.180;2022-07-30T15:06:54;1.35;;;0.93;;
46429;SDS011;32131;53.454;-6.180;2022-07-30T15:09:26;1.33;;;0.65;;
46429;SDS011;32131;53.454;-6.180;2022-07-30T15:11:55;0.93;;;0.60;;
46429;SDS011;32131;53.454;-6.180;2022-07-30T15:14:46;0.98;;;0.50;;
46429;SDS011;32131;53.454;-6.180;2022-07-30T15:17:17;0.50;;;0.40;;
46429;SDS011;32131;53.454;-6.180;2022-07-30T15:19:46;1.75;;;0.60;;
46429;SDS011;32131;53.454;-6.180;2022-07-30T15:22:19;0.60;;;0.47;;
46429;SDS011;32131;53.454;-6.180;2022-07-30T15:24:47;6.35;;;0.73;;
46429;SDS011;32131;53.454;-6.180;2022-07-30T15:27:16;2.10;;;0.75;;
46429;SDS011;32131;53.454;-6.180;2022-07-30T15:29:58;1.45;;;0.60;;
46429;SDS011;32131;53.454;-6.180;2022-07-30T15:32:26;1.33;;;0.50;;
46429;SDS011;32131;53.454;-6.180;2022-07-30T15:34:55;2.38;;;0.80;;
46429;SDS011;32131;53.454;-6.180;2022-07-30T15:37:38;2.75;;;0.57;;
46429;SDS011;32131;53.454;-6.180;2022-07-30T15:40:06;1.15;;;0.40;;
46429;SDS011;32131;53.454;-6.180;2022-07-30T15:42:35;5.72;;;0.77;;
46429;SDS011;32131;53.454;-6.180;2022-07-30T15:45:04;0.75;;;0.40;;
46429;SDS011;32131;53.454;-6.180;2022-07-30T15:47:43;0.40;;;0.30;;
46429;SDS011;32131;53.454;-6.180;2022-07-30T15:50:11;1.50;;;0.70;;
46429;SDS011;32131;53.454;-6.180;2022-07-30T15:52:42;0.93;;;0.55;;
46429;SDS011;32131;53.454;-6.180;2022-07-30T15:55:14;3.70;;;0.55;;